sensor_id;sensor_type;location;lat;lon;timestamp;P1;durP1;ratioP1;P2;durP2;ratioP2
24567;SDS011;12731;52.182;8.716;2024-01-06T00:00:00;12.98;;;11.55;;
24567;SDS011;12731;52.182;8.716;2024-01-06T00:02:26;16.50;;;12.30;;
24567;SDS011;12731;52.182;8.716;2024-01-06T00:04:53;15.43;;;12.23;;
24567;SDS011;12731;52.182;8.716;2024-01-06T00:07:19;14.40;;;12.65;;
24567;SDS011;12731;52.182;8.716;2024-01-06T00:09:46;14.35;;;12.70;;
24567;SDS011;12731;52.182;8.716;2024-01-06T00:12:12;19.05;;;14.30;;
24567;SDS011;12731;52.182;8.716;2024-01-06T00:14:39;18.23;;;14.15;;
24567;SDS011;12731;52.182;8.716;2024-01-06T00:17:09;19.25;;;14.55;;
24567;SDS011;12731;52.182;8.716;2024-01-06T00:19:36;18.63;;;14.73;;
24567;SDS011;12731;52.182;8.716;2024-01-06T00:22:02;21.55;;;15.70;;
24567;SDS011;12731;52.182;8.716;2024-01-06T00:24:29;18.15;;;14.73;;
24567;SDS011;12731;52.182;8.716;2024-01-06T00:26:55;19.38;;;14.93;;
24567;SDS011;12731;52.182;8.716;2024-01-06T00:29:22;20.05;;;15.18;;
24567;SDS011;12731;52.182;8.716;2024-01-06T00:31:48;19.58;;;16.13;;
24567;SDS011;12731;52.182;8.716;2024-01-06T00:34:15;18.88;;;14.70;;
24567;SDS011;12731;52.182;8.716;2024-01-06T00:36:42;20.73;;;15.10;;
24567;SDS011;12731;52.182;8.716;2024-01-06T00:39:08;19.98;;;15.05;;
24567;SDS011;12731;52.182;8.716;2024-01-06T00:41:35;17.92;;;14.23;;
24567;SDS011;12731;52.182;8.716;2024-01-06T00:44:01;14.63;;;11.23;;
24567;SDS011;12731;52.182;8.716;2024-01-06T00:46:27;10.35;;;8.70;;
24567;SDS011;12731;52.182;8.716;2024-01-06T00:48:54;10.00;;;8.15;;
24567;SDS011;12731;52.182;8.716;2024-01-06T00:51:20;10.27;;;8.05;;
24567;SDS011;12731;52.182;8.716;2024-01-06T00:53:48;9.70;;;7.43;;
24567;SDS011;12731;52.182;8.716;2024-01-06T00:56:14;8.93;;;7.18;;
24567;SDS011;12731;52.182;8.716;2024-01-06T00:58:40;9.32;;;7.40;;
24567;SDS011;12731;52.182;8.716;2024-01-06T01:01:07;9.55;;;7.28;;
24567;SDS011;12731;52.182;8.716;2024-01-06T01:03:33;11.20;;;8.27;;
24567;SDS011;12731;52.182;8.716;2024-01-06T01:06:00;12.45;;;8.82;;
24567;SDS011;12731;52.182;8.716;2024-01-06T01:08:27;11.10;;;9.30;;
24567;SDS011;12731;52.182;8.716;2024-01-06T01:10:53;12.52;;;9.45;;
24567;SDS011;12731;52.182;8.716;2024-01-06T01:13:19;12.88;;;9.75;;
24567;SDS011;12731;52.182;8.716;2024-01-06T01:15:46;14.77;;;11.30;;
24567;SDS011;12731;52.182;8.716;2024-01-06T01:18:12;13.63;;;10.60;;
24567;SDS011;12731;52.182;8.716;2024-01-06T01:20:39;15.07;;;11.55;;
24567;SDS011;12731;52.182;8.716;2024-01-06T01:23:08;14.23;;;10.95;;
24567;SDS011;12731;52.182;8.716;2024-01-06T01:25:34;15.80;;;10.95;;
24567;SDS011;12731;52.182;8.716;2024-01-06T01:28:00;15.40;;;11.35;;
24567;SDS011;12731;52.182;8.716;2024-01-06T01:30:27;13.48;;;10.85;;
24567;SDS011;12731;52.182;8.716;2024-01-06T01:32:54;14.77;;;10.73;;
24567;SDS011;12731;52.182;8.716;2024-01-06T01:35:20;16.08;;;10.75;;
24567;SDS011;12731;52.182;8.716;2024-01-06T01:37:47;14.57;;;10.98;;
24567;SDS011;12731;52.182;8.716;2024-01-06T01:40:13;15.90;;;11.40;;
24567;SDS011;12731;52.182;8.716;2024-01-06T01:42:41;14.98;;;10.80;;
24567;SDS011;12731;52.182;8.716;2024-01-06T01:45:08;14.98;;;11.00;;
24567;SDS011;12731;52.182;8.716;2024-01-06T01:47:38;14.35;;;10.63;;
24567;SDS011;12731;52.182;8.716;2024-01-06T01:50:05;14.50;;;10.70;;
24567;SDS011;12731;52.182;8.716;2024-01-06T01:52:32;14.48;;;11.27;;
24567;SDS011;12731;52.182;8.716;2024-01-06T01:54:59;14.88;;;11.18;;
24567;SDS011;12731;52.182;8.716;2024-01-06T01:57:25;17.30;;;12.10;;
24567;SDS011;12731;52.182;8.716;2024-01-06T01:59:52;16.92;;;11.68;;
24567;SDS011;12731;52.182;8.716;2024-01-06T02:02:18;16.80;;;12.30;;
24567;SDS011;12731;52.182;8.716;2024-01-06T02:04:45;14.45;;;11.32;;
24567;SDS011;12731;52.182;8.716;2024-01-06T02:07:12;15.32;;;11.38;;
24567;SDS011;12731;52.182;8.716;2024-01-06T02:09:38;15.73;;;11.50;;
24567;SDS011;12731;52.182;8.716;2024-01-06T02:12:05;15.25;;;11.25;;
24567;SDS011;12731;52.182;8.716;2024-01-06T02:14:31;16.48;;;12.02;;
24567;SDS011;12731;52.182;8.716;2024-01-06T02:16:58;15.68;;;11.93;;
24567;SDS011;12731;52.182;8.716;2024-01-06T02:19:25;16.90;;;11.98;;
24567;SDS011;12731;52.182;8.716;2024-01-06T02:21:52;17.38;;;12.10;;
24567;SDS011;12731;52.182;8.716;2024-01-06T02:24:19;16.67;;;11.98;;
24567;SDS011;12731;52.182;8.716;2024-01-06T02:26:46;16.58;;;11.82;;
24567;SDS011;12731;52.182;8.716;2024-01-06T02:29:12;18.08;;;12.48;;
24567;SDS011;12731;52.182;8.716;2024-01-06T02:31:39;15.73;;;11.23;;
24567;SDS011;12731;52.182;8.716;2024-01-06T02:34:05;16.95;;;12.45;;
24567;SDS011;12731;52.182;8.716;2024-01-06T02:36:32;17.05;;;12.35;;
24567;SDS011;12731;52.182;8.716;2024-01-06T02:38:58;15.65;;;11.70;;
24567;SDS011;12731;52.182;8.716;2024-01-06T02:41:25;16.42;;;12.65;;
24567;SDS011;12731;52.182;8.716;2024-01-06T02:43:52;16.35;;;11.65;;
24567;SDS011;12731;52.182;8.716;2024-01-06T02:46:20;15.27;;;11.23;;
24567;SDS011;12731;52.182;8.716;2024-01-06T02:48:47;16.10;;;11.98;;
24567;SDS011;12731;52.182;8.716;2024-01-06T02:51:14;16.45;;;12.07;;
24567;SDS011;12731;52.182;8.716;2024-01-06T02:53:40;17.05;;;12.38;;
24567;SDS011;12731;52.182;8.716;2024-01-06T02:56:10;15.48;;;11.82;;
24567;SDS011;12731;52.182;8.716;2024-01-06T02:58:37;16.23;;;11.85;;
24567;SDS011;12731;52.182;8.716;2024-01-06T03:01:04;14.73;;;11.02;;
24567;SDS011;12731;52.182;8.716;2024-01-06T03:03:31;16.55;;;12.27;;
24567;SDS011;12731;52.182;8.716;2024-01-06T03:05:57;16.98;;;12.32;;
24567;SDS011;12731;52.182;8.716;2024-01-06T03:08:24;18.83;;;12.32;;
24567;SDS011;12731;52.182;8.716;2024-01-06T03:10:50;19.13;;;12.90;;
24567;SDS011;12731;52.182;8.716;2024-01-06T03:13:17;18.23;;;12.02;;
24567;SDS011;12731;52.182;8.716;2024-01-06T03:15:43;18.63;;;12.73;;
24567;SDS011;12731;52.182;8.716;2024-01-06T03:18:09;17.45;;;12.20;;
24567;SDS011;12731;52.182;8.716;2024-01-06T03:20:36;17.77;;;12.35;;
24567;SDS011;12731;52.182;8.716;2024-01-06T03:23:03;16.20;;;11.88;;
24567;SDS011;12731;52.182;8.716;2024-01-06T03:25:29;17.25;;;12.68;;
24567;SDS011;12731;52.182;8.716;2024-01-06T03:27:55;20.23;;;12.98;;
24567;SDS011;12731;52.182;8.716;2024-01-06T03:30:22;17.80;;;12.52;;
24567;SDS011;12731;52.182;8.716;2024-01-06T03:32:48;18.95;;;12.07;;
24567;SDS011;12731;52.182;8.716;2024-01-06T03:35:15;18.20;;;11.90;;
24567;SDS011;12731;52.182;8.716;2024-01-06T03:37:41;18.52;;;12.93;;
24567;SDS011;12731;52.182;8.716;2024-01-06T03:40:08;16.63;;;12.10;;
24567;SDS011;12731;52.182;8.716;2024-01-06T03:42:35;17.17;;;12.55;;
24567;SDS011;12731;52.182;8.716;2024-01-06T03:45:03;18.00;;;13.10;;
24567;SDS011;12731;52.182;8.716;2024-01-06T03:47:29;19.48;;;13.57;;
24567;SDS011;12731;52.182;8.716;2024-01-06T03:49:56;18.55;;;13.30;;
24567;SDS011;12731;52.182;8.716;2024-01-06T03:52:22;19.05;;;12.93;;
24567;SDS011;12731;52.182;8.716;2024-01-06T03:54:49;18.83;;;13.25;;
24567;SDS011;12731;52.182;8.716;2024-01-06T03:57:16;18.15;;;12.65;;
24567;SDS011;12731;52.182;8.716;2024-01-06T03:59:42;20.38;;;13.85;;
24567;SDS011;12731;52.182;8.716;2024-01-06T04:02:09;18.95;;;13.45;;
24567;SDS011;12731;52.182;8.716;2024-01-06T04:04:35;21.05;;;14.00;;
24567;SDS011;12731;52.182;8.716;2024-01-06T04:07:01;20.10;;;13.90;;
24567;SDS011;12731;52.182;8.716;2024-01-06T04:09:28;20.95;;;13.77;;
24567;SDS011;12731;52.182;8.716;2024-01-06T04:11:55;21.20;;;13.95;;
24567;SDS011;12731;52.182;8.716;2024-01-06T04:14:21;21.63;;;14.65;;
24567;SDS011;12731;52.182;8.716;2024-01-06T04:16:48;19.52;;;13.70;;
24567;SDS011;12731;52.182;8.716;2024-01-06T04:19:14;20.42;;;13.63;;
24567;SDS011;12731;52.182;8.716;2024-01-06T04:21:41;20.80;;;13.52;;
24567;SDS011;12731;52.182;8.716;2024-01-06T04:24:08;20.63;;;14.18;;
24567;SDS011;12731;52.182;8.716;2024-01-06T04:26:34;19.85;;;14.15;;
24567;SDS011;12731;52.182;8.716;2024-01-06T04:29:01;20.60;;;14.05;;
24567;SDS011;12731;52.182;8.716;2024-01-06T04:31:27;21.10;;;13.98;;
24567;SDS011;12731;52.182;8.716;2024-01-06T04:33:54;20.65;;;13.88;;
24567;SDS011;12731;52.182;8.716;2024-01-06T04:36:21;19.73;;;13.50;;
24567;SDS011;12731;52.182;8.716;2024-01-06T04:38:47;21.40;;;14.65;;
24567;SDS011;12731;52.182;8.716;2024-01-06T04:41:14;22.13;;;14.55;;
24567;SDS011;12731;52.182;8.716;2024-01-06T04:43:40;21.65;;;13.90;;
24567;SDS011;12731;52.182;8.716;2024-01-06T04:46:06;21.83;;;14.27;;
24567;SDS011;12731;52.182;8.716;2024-01-06T04:48:33;20.52;;;13.65;;
24567;SDS011;12731;52.182;8.716;2024-01-06T04:50:59;22.60;;;14.65;;
24567;SDS011;12731;52.182;8.716;2024-01-06T04:53:26;22.27;;;14.65;;
24567;SDS011;12731;52.182;8.716;2024-01-06T04:55:52;22.65;;;15.77;;
24567;SDS011;12731;52.182;8.716;2024-01-06T04:58:19;24.42;;;15.07;;
24567;SDS011;12731;52.182;8.716;2024-01-06T05:00:45;21.52;;;15.15;;
24567;SDS011;12731;52.182;8.716;2024-01-06T05:03:12;23.38;;;15.25;;
24567;SDS011;12731;52.182;8.716;2024-01-06T05:05:39;24.25;;;15.65;;
24567;SDS011;12731;52.182;8.716;2024-01-06T05:08:05;25.25;;;16.35;;
24567;SDS011;12731;52.182;8.716;2024-01-06T05:10:32;22.30;;;15.20;;
24567;SDS011;12731;52.182;8.716;2024-01-06T05:12:58;24.08;;;15.75;;
24567;SDS011;12731;52.182;8.716;2024-01-06T05:15:25;25.70;;;15.73;;
24567;SDS011;12731;52.182;8.716;2024-01-06T05:17:51;25.63;;;15.52;;
24567;SDS011;12731;52.182;8.716;2024-01-06T05:20:18;24.05;;;14.90;;
24567;SDS011;12731;52.182;8.716;2024-01-06T05:22:44;20.98;;;13.65;;
24567;SDS011;12731;52.182;8.716;2024-01-06T05:25:11;17.98;;;11.63;;
24567;SDS011;12731;52.182;8.716;2024-01-06T05:27:37;14.75;;;9.95;;
24567;SDS011;12731;52.182;8.716;2024-01-06T05:30:04;15.27;;;9.90;;
24567;SDS011;12731;52.182;8.716;2024-01-06T05:32:31;13.93;;;8.68;;
24567;SDS011;12731;52.182;8.716;2024-01-06T05:34:57;10.80;;;6.65;;
24567;SDS011;12731;52.182;8.716;2024-01-06T05:37:24;9.13;;;6.05;;
24567;SDS011;12731;52.182;8.716;2024-01-06T05:39:50;7.57;;;5.25;;
24567;SDS011;12731;52.182;8.716;2024-01-06T05:42:17;5.05;;;3.92;;
24567;SDS011;12731;52.182;8.716;2024-01-06T05:44:43;3.92;;;3.30;;
24567;SDS011;12731;52.182;8.716;2024-01-06T05:47:10;4.70;;;3.50;;
24567;SDS011;12731;52.182;8.716;2024-01-06T05:49:41;4.03;;;3.25;;
24567;SDS011;12731;52.182;8.716;2024-01-06T05:52:08;4.40;;;3.63;;
24567;SDS011;12731;52.182;8.716;2024-01-06T05:54:34;5.13;;;4.00;;
24567;SDS011;12731;52.182;8.716;2024-01-06T05:57:01;4.70;;;3.58;;
24567;SDS011;12731;52.182;8.716;2024-01-06T05:59:27;5.53;;;4.25;;
24567;SDS011;12731;52.182;8.716;2024-01-06T06:01:54;6.00;;;4.00;;
24567;SDS011;12731;52.182;8.716;2024-01-06T06:04:20;5.05;;;3.80;;
24567;SDS011;12731;52.182;8.716;2024-01-06T06:06:47;4.65;;;3.92;;
24567;SDS011;12731;52.182;8.716;2024-01-06T06:09:13;5.68;;;4.20;;
24567;SDS011;12731;52.182;8.716;2024-01-06T06:11:40;5.28;;;4.35;;
24567;SDS011;12731;52.182;8.716;2024-01-06T06:14:06;5.53;;;3.70;;
24567;SDS011;12731;52.182;8.716;2024-01-06T06:16:33;5.65;;;4.00;;
24567;SDS011;12731;52.182;8.716;2024-01-06T06:18:59;6.75;;;5.03;;
24567;SDS011;12731;52.182;8.716;2024-01-06T06:21:26;6.63;;;5.18;;
24567;SDS011;12731;52.182;8.716;2024-01-06T06:23:52;7.05;;;5.22;;
24567;SDS011;12731;52.182;8.716;2024-01-06T06:26:18;7.43;;;4.93;;
24567;SDS011;12731;52.182;8.716;2024-01-06T06:28:45;6.63;;;4.82;;
24567;SDS011;12731;52.182;8.716;2024-01-06T06:31:11;7.72;;;5.50;;
24567;SDS011;12731;52.182;8.716;2024-01-06T06:33:38;6.82;;;5.13;;
24567;SDS011;12731;52.182;8.716;2024-01-06T06:36:05;6.97;;;5.15;;
24567;SDS011;12731;52.182;8.716;2024-01-06T06:38:32;6.43;;;4.90;;
24567;SDS011;12731;52.182;8.716;2024-01-06T06:40:58;7.72;;;5.65;;
24567;SDS011;12731;52.182;8.716;2024-01-06T06:43:25;6.35;;;5.10;;
24567;SDS011;12731;52.182;8.716;2024-01-06T06:45:51;7.45;;;5.80;;
24567;SDS011;12731;52.182;8.716;2024-01-06T06:48:18;7.05;;;5.68;;
24567;SDS011;12731;52.182;8.716;2024-01-06T06:50:44;7.57;;;5.43;;
24567;SDS011;12731;52.182;8.716;2024-01-06T06:53:11;8.23;;;5.82;;
24567;SDS011;12731;52.182;8.716;2024-01-06T06:55:38;7.63;;;5.60;;
24567;SDS011;12731;52.182;8.716;2024-01-06T06:58:06;9.05;;;6.43;;
24567;SDS011;12731;52.182;8.716;2024-01-06T07:00:33;10.10;;;7.03;;
24567;SDS011;12731;52.182;8.716;2024-01-06T07:02:59;10.30;;;6.65;;
24567;SDS011;12731;52.182;8.716;2024-01-06T07:05:26;9.20;;;6.63;;
24567;SDS011;12731;52.182;8.716;2024-01-06T07:07:53;10.13;;;7.07;;
24567;SDS011;12731;52.182;8.716;2024-01-06T07:10:19;12.75;;;7.68;;
24567;SDS011;12731;52.182;8.716;2024-01-06T07:12:46;11.05;;;7.80;;
24567;SDS011;12731;52.182;8.716;2024-01-06T07:15:12;12.50;;;8.25;;
24567;SDS011;12731;52.182;8.716;2024-01-06T07:17:39;12.80;;;7.70;;
24567;SDS011;12731;52.182;8.716;2024-01-06T07:20:06;10.40;;;7.93;;
24567;SDS011;12731;52.182;8.716;2024-01-06T07:22:33;11.65;;;8.18;;
24567;SDS011;12731;52.182;8.716;2024-01-06T07:25:00;10.55;;;8.07;;
24567;SDS011;12731;52.182;8.716;2024-01-06T07:27:27;14.00;;;8.80;;
24567;SDS011;12731;52.182;8.716;2024-01-06T07:29:53;14.57;;;9.07;;
24567;SDS011;12731;52.182;8.716;2024-01-06T07:32:24;11.40;;;7.70;;
24567;SDS011;12731;52.182;8.716;2024-01-06T07:34:51;10.07;;;7.35;;
24567;SDS011;12731;52.182;8.716;2024-01-06T07:37:18;10.07;;;6.47;;
24567;SDS011;12731;52.182;8.716;2024-01-06T07:39:44;8.57;;;6.03;;
24567;SDS011;12731;52.182;8.716;2024-01-06T07:42:10;8.25;;;6.13;;
24567;SDS011;12731;52.182;8.716;2024-01-06T07:44:37;8.70;;;6.45;;
24567;SDS011;12731;52.182;8.716;2024-01-06T07:47:05;8.57;;;6.43;;
24567;SDS011;12731;52.182;8.716;2024-01-06T07:49:31;8.90;;;6.90;;
24567;SDS011;12731;52.182;8.716;2024-01-06T07:51:58;9.40;;;6.22;;
24567;SDS011;12731;52.182;8.716;2024-01-06T07:54:25;9.30;;;6.47;;
24567;SDS011;12731;52.182;8.716;2024-01-06T07:56:51;9.50;;;6.43;;
24567;SDS011;12731;52.182;8.716;2024-01-06T07:59:18;10.07;;;7.18;;
24567;SDS011;12731;52.182;8.716;2024-01-06T08:01:44;12.55;;;7.97;;
24567;SDS011;12731;52.182;8.716;2024-01-06T08:04:11;11.65;;;8.18;;
24567;SDS011;12731;52.182;8.716;2024-01-06T08:06:37;13.23;;;8.45;;
24567;SDS011;12731;52.182;8.716;2024-01-06T08:09:05;12.18;;;7.75;;
24567;SDS011;12731;52.182;8.716;2024-01-06T08:11:32;14.70;;;7.72;;
24567;SDS011;12731;52.182;8.716;2024-01-06T08:13:58;10.52;;;6.85;;
24567;SDS011;12731;52.182;8.716;2024-01-06T08:16:25;10.07;;;6.68;;
24567;SDS011;12731;52.182;8.716;2024-01-06T08:18:51;10.38;;;6.38;;
24567;SDS011;12731;52.182;8.716;2024-01-06T08:21:18;9.82;;;6.93;;
24567;SDS011;12731;52.182;8.716;2024-01-06T08:23:45;9.30;;;6.60;;
24567;SDS011;12731;52.182;8.716;2024-01-06T08:26:11;6.95;;;4.93;;
24567;SDS011;12731;52.182;8.716;2024-01-06T08:28:39;7.22;;;5.07;;
24567;SDS011;12731;52.182;8.716;2024-01-06T08:31:05;7.40;;;5.00;;
24567;SDS011;12731;52.182;8.716;2024-01-06T08:33:32;9.73;;;5.80;;
24567;SDS011;12731;52.182;8.716;2024-01-06T08:35:58;7.70;;;5.53;;
24567;SDS011;12731;52.182;8.716;2024-01-06T08:38:25;8.50;;;5.85;;
24567;SDS011;12731;52.182;8.716;2024-01-06T08:40:52;10.40;;;6.38;;
24567;SDS011;12731;52.182;8.716;2024-01-06T08:43:19;9.55;;;6.72;;
24567;SDS011;12731;52.182;8.716;2024-01-06T08:45:46;9.15;;;6.10;;
24567;SDS011;12731;52.182;8.716;2024-01-06T08:48:14;10.50;;;6.93;;
24567;SDS011;12731;52.182;8.716;2024-01-06T08:50:41;10.32;;;7.05;;
24567;SDS011;12731;52.182;8.716;2024-01-06T08:53:08;11.68;;;7.93;;
24567;SDS011;12731;52.182;8.716;2024-01-06T08:55:34;12.48;;;8.05;;
24567;SDS011;12731;52.182;8.716;2024-01-06T08:58:01;9.98;;;7.18;;
24567;SDS011;12731;52.182;8.716;2024-01-06T09:00:27;12.25;;;8.20;;
24567;SDS011;12731;52.182;8.716;2024-01-06T09:02:54;11.30;;;7.55;;
24567;SDS011;12731;52.182;8.716;2024-01-06T09:05:21;12.05;;;7.50;;
24567;SDS011;12731;52.182;8.716;2024-01-06T09:07:47;12.50;;;7.82;;
24567;SDS011;12731;52.182;8.716;2024-01-06T09:10:20;12.15;;;7.88;;
24567;SDS011;12731;52.182;8.716;2024-01-06T09:12:46;12.88;;;7.78;;
24567;SDS011;12731;52.182;8.716;2024-01-06T09:15:14;10.40;;;7.40;;
24567;SDS011;12731;52.182;8.716;2024-01-06T09:17:40;10.55;;;7.40;;
24567;SDS011;12731;52.182;8.716;2024-01-06T09:20:07;11.43;;;7.38;;
24567;SDS011;12731;52.182;8.716;2024-01-06T09:22:33;11.32;;;7.75;;
24567;SDS011;12731;52.182;8.716;2024-01-06T09:25:00;11.90;;;7.10;;
24567;SDS011;12731;52.182;8.716;2024-01-06T09:27:26;10.32;;;6.88;;
24567;SDS011;12731;52.182;8.716;2024-01-06T09:29:53;10.02;;;5.97;;
24567;SDS011;12731;52.182;8.716;2024-01-06T09:32:19;7.75;;;5.38;;
24567;SDS011;12731;52.182;8.716;2024-01-06T09:34:46;11.73;;;7.25;;
24567;SDS011;12731;52.182;8.716;2024-01-06T09:37:13;8.38;;;5.32;;
24567;SDS011;12731;52.182;8.716;2024-01-06T09:39:40;6.53;;;4.38;;
24567;SDS011;12731;52.182;8.716;2024-01-06T09:42:06;8.00;;;4.38;;
24567;SDS011;12731;52.182;8.716;2024-01-06T09:44:33;7.68;;;5.00;;
24567;SDS011;12731;52.182;8.716;2024-01-06T09:46:59;8.20;;;5.10;;
24567;SDS011;12731;52.182;8.716;2024-01-06T09:49:28;9.43;;;5.53;;
24567;SDS011;12731;52.182;8.716;2024-01-06T09:51:56;8.23;;;4.35;;
24567;SDS011;12731;52.182;8.716;2024-01-06T09:54:24;6.57;;;4.20;;
24567;SDS011;12731;52.182;8.716;2024-01-06T09:56:51;6.80;;;4.22;;
24567;SDS011;12731;52.182;8.716;2024-01-06T09:59:18;8.15;;;4.28;;
24567;SDS011;12731;52.182;8.716;2024-01-06T10:01:48;6.70;;;4.28;;
24567;SDS011;12731;52.182;8.716;2024-01-06T10:04:15;6.25;;;4.25;;
24567;SDS011;12731;52.182;8.716;2024-01-06T10:06:47;5.53;;;4.03;;
24567;SDS011;12731;52.182;8.716;2024-01-06T10:09:14;5.50;;;3.83;;
24567;SDS011;12731;52.182;8.716;2024-01-06T10:11:40;6.80;;;4.53;;
24567;SDS011;12731;52.182;8.716;2024-01-06T10:14:07;7.97;;;5.28;;
24567;SDS011;12731;52.182;8.716;2024-01-06T10:16:34;8.27;;;4.85;;
24567;SDS011;12731;52.182;8.716;2024-01-06T10:19:01;8.55;;;5.05;;
24567;SDS011;12731;52.182;8.716;2024-01-06T10:21:29;6.03;;;4.32;;
24567;SDS011;12731;52.182;8.716;2024-01-06T10:23:55;5.93;;;4.30;;
24567;SDS011;12731;52.182;8.716;2024-01-06T10:26:21;6.30;;;4.00;;
24567;SDS011;12731;52.182;8.716;2024-01-06T10:28:48;8.43;;;5.05;;
24567;SDS011;12731;52.182;8.716;2024-01-06T10:31:16;7.32;;;4.90;;
24567;SDS011;12731;52.182;8.716;2024-01-06T10:33:42;7.90;;;4.75;;
24567;SDS011;12731;52.182;8.716;2024-01-06T10:36:09;7.25;;;4.47;;
24567;SDS011;12731;52.182;8.716;2024-01-06T10:38:36;7.57;;;4.88;;
24567;SDS011;12731;52.182;8.716;2024-01-06T10:41:03;7.88;;;5.35;;
24567;SDS011;12731;52.182;8.716;2024-01-06T10:43:36;5.70;;;4.03;;
24567;SDS011;12731;52.182;8.716;2024-01-06T10:46:07;4.78;;;3.45;;
24567;SDS011;12731;52.182;8.716;2024-01-06T10:48:37;5.60;;;3.88;;
24567;SDS011;12731;52.182;8.716;2024-01-06T10:51:09;4.45;;;3.55;;
24567;SDS011;12731;52.182;8.716;2024-01-06T10:53:35;5.15;;;3.67;;
24567;SDS011;12731;52.182;8.716;2024-01-06T10:56:03;3.58;;;2.72;;
24567;SDS011;12731;52.182;8.716;2024-01-06T10:58:30;4.50;;;2.90;;
24567;SDS011;12731;52.182;8.716;2024-01-06T11:00:59;3.05;;;2.20;;
24567;SDS011;12731;52.182;8.716;2024-01-06T11:03:27;3.88;;;2.60;;
24567;SDS011;12731;52.182;8.716;2024-01-06T11:05:56;3.60;;;2.65;;
24567;SDS011;12731;52.182;8.716;2024-01-06T11:08:23;4.38;;;3.17;;
24567;SDS011;12731;52.182;8.716;2024-01-06T11:10:51;6.15;;;3.83;;
24567;SDS011;12731;52.182;8.716;2024-01-06T11:13:21;7.35;;;4.78;;
24567;SDS011;12731;52.182;8.716;2024-01-06T11:15:49;4.97;;;3.80;;
24567;SDS011;12731;52.182;8.716;2024-01-06T11:18:30;4.15;;;2.85;;
24567;SDS011;12731;52.182;8.716;2024-01-06T11:23:43;4.75;;;2.92;;
24567;SDS011;12731;52.182;8.716;2024-01-06T11:26:10;3.33;;;2.70;;
24567;SDS011;12731;52.182;8.716;2024-01-06T11:28:43;3.35;;;2.67;;
24567;SDS011;12731;52.182;8.716;2024-01-06T11:31:11;3.95;;;2.65;;
24567;SDS011;12731;52.182;8.716;2024-01-06T11:33:44;4.18;;;2.80;;
24567;SDS011;12731;52.182;8.716;2024-01-06T11:36:11;4.55;;;2.60;;
24567;SDS011;12731;52.182;8.716;2024-01-06T11:38:38;4.10;;;2.80;;
24567;SDS011;12731;52.182;8.716;2024-01-06T11:41:08;3.55;;;2.90;;
24567;SDS011;12731;52.182;8.716;2024-01-06T11:43:37;3.67;;;2.75;;
24567;SDS011;12731;52.182;8.716;2024-01-06T11:46:05;4.30;;;2.75;;
24567;SDS011;12731;52.182;8.716;2024-01-06T11:48:33;3.38;;;2.85;;
24567;SDS011;12731;52.182;8.716;2024-01-06T11:51:00;4.40;;;2.75;;
24567;SDS011;12731;52.182;8.716;2024-01-06T11:53:27;4.10;;;3.10;;
24567;SDS011;12731;52.182;8.716;2024-01-06T11:55:54;4.57;;;3.25;;
24567;SDS011;12731;52.182;8.716;2024-01-06T11:58:20;5.30;;;4.13;;
24567;SDS011;12731;52.182;8.716;2024-01-06T12:00:56;5.88;;;3.90;;
24567;SDS011;12731;52.182;8.716;2024-01-06T12:03:24;3.45;;;2.78;;
24567;SDS011;12731;52.182;8.716;2024-01-06T12:05:59;4.03;;;3.03;;
24567;SDS011;12731;52.182;8.716;2024-01-06T12:08:29;6.30;;;4.45;;
24567;SDS011;12731;52.182;8.716;2024-01-06T12:11:02;5.68;;;3.95;;
24567;SDS011;12731;52.182;8.716;2024-01-06T12:13:29;4.35;;;3.40;;
24567;SDS011;12731;52.182;8.716;2024-01-06T12:15:56;5.38;;;3.17;;
24567;SDS011;12731;52.182;8.716;2024-01-06T12:18:22;4.63;;;3.22;;
24567;SDS011;12731;52.182;8.716;2024-01-06T12:20:50;4.45;;;3.45;;
24567;SDS011;12731;52.182;8.716;2024-01-06T12:23:27;6.10;;;4.13;;
24567;SDS011;12731;52.182;8.716;2024-01-06T12:25:57;13.73;;;10.10;;
24567;SDS011;12731;52.182;8.716;2024-01-06T12:28:23;9.63;;;8.10;;
24567;SDS011;12731;52.182;8.716;2024-01-06T12:30:50;13.15;;;10.25;;
24567;SDS011;12731;52.182;8.716;2024-01-06T12:33:17;15.52;;;11.27;;
24567;SDS011;12731;52.182;8.716;2024-01-06T12:35:44;8.48;;;7.00;;
24567;SDS011;12731;52.182;8.716;2024-01-06T12:38:10;6.15;;;4.85;;
24567;SDS011;12731;52.182;8.716;2024-01-06T12:40:37;5.28;;;4.32;;
24567;SDS011;12731;52.182;8.716;2024-01-06T12:43:04;5.10;;;4.05;;
24567;SDS011;12731;52.182;8.716;2024-01-06T12:45:31;6.22;;;4.95;;
24567;SDS011;12731;52.182;8.716;2024-01-06T12:47:58;7.68;;;5.35;;
24567;SDS011;12731;52.182;8.716;2024-01-06T12:50:25;5.93;;;4.65;;
24567;SDS011;12731;52.182;8.716;2024-01-06T12:52:51;5.97;;;4.30;;
24567;SDS011;12731;52.182;8.716;2024-01-06T12:55:17;6.50;;;5.43;;
24567;SDS011;12731;52.182;8.716;2024-01-06T12:57:44;8.32;;;7.20;;
24567;SDS011;12731;52.182;8.716;2024-01-06T13:00:11;7.10;;;5.68;;
24567;SDS011;12731;52.182;8.716;2024-01-06T13:02:38;11.43;;;8.52;;
24567;SDS011;12731;52.182;8.716;2024-01-06T13:05:04;8.43;;;7.25;;
24567;SDS011;12731;52.182;8.716;2024-01-06T13:07:31;6.65;;;4.53;;
24567;SDS011;12731;52.182;8.716;2024-01-06T13:09:57;4.88;;;3.95;;
24567;SDS011;12731;52.182;8.716;2024-01-06T13:12:24;5.15;;;3.60;;
24567;SDS011;12731;52.182;8.716;2024-01-06T13:14:51;4.13;;;3.55;;
24567;SDS011;12731;52.182;8.716;2024-01-06T13:17:17;4.82;;;3.70;;
24567;SDS011;12731;52.182;8.716;2024-01-06T13:19:43;4.28;;;3.55;;
24567;SDS011;12731;52.182;8.716;2024-01-06T13:22:10;5.88;;;4.10;;
24567;SDS011;12731;52.182;8.716;2024-01-06T13:24:36;4.45;;;3.75;;
24567;SDS011;12731;52.182;8.716;2024-01-06T13:27:04;4.07;;;3.40;;
24567;SDS011;12731;52.182;8.716;2024-01-06T13:29:30;4.47;;;3.55;;
24567;SDS011;12731;52.182;8.716;2024-01-06T13:31:57;4.75;;;3.45;;
24567;SDS011;12731;52.182;8.716;2024-01-06T13:34:26;4.13;;;3.17;;
24567;SDS011;12731;52.182;8.716;2024-01-06T13:36:53;4.28;;;2.65;;
24567;SDS011;12731;52.182;8.716;2024-01-06T13:39:23;3.80;;;2.97;;
24567;SDS011;12731;52.182;8.716;2024-01-06T13:41:49;2.88;;;2.38;;
24567;SDS011;12731;52.182;8.716;2024-01-06T13:44:16;3.13;;;2.72;;
24567;SDS011;12731;52.182;8.716;2024-01-06T13:46:42;3.00;;;2.50;;
24567;SDS011;12731;52.182;8.716;2024-01-06T13:49:11;3.25;;;2.53;;
24567;SDS011;12731;52.182;8.716;2024-01-06T13:51:39;7.85;;;5.80;;
24567;SDS011;12731;52.182;8.716;2024-01-06T13:54:05;10.45;;;7.70;;
24567;SDS011;12731;52.182;8.716;2024-01-06T13:56:32;11.00;;;7.88;;
24567;SDS011;12731;52.182;8.716;2024-01-06T13:58:58;12.70;;;8.68;;
24567;SDS011;12731;52.182;8.716;2024-01-06T14:01:25;11.25;;;7.70;;
24567;SDS011;12731;52.182;8.716;2024-01-06T14:03:51;10.75;;;7.15;;
24567;SDS011;12731;52.182;8.716;2024-01-06T14:06:24;9.55;;;7.03;;
24567;SDS011;12731;52.182;8.716;2024-01-06T14:08:51;12.05;;;6.65;;
24567;SDS011;12731;52.182;8.716;2024-01-06T14:11:18;9.60;;;6.97;;
24567;SDS011;12731;52.182;8.716;2024-01-06T14:13:45;9.27;;;6.22;;
24567;SDS011;12731;52.182;8.716;2024-01-06T14:16:15;11.75;;;7.63;;
24567;SDS011;12731;52.182;8.716;2024-01-06T14:18:41;11.93;;;7.70;;
24567;SDS011;12731;52.182;8.716;2024-01-06T14:21:09;11.10;;;8.25;;
24567;SDS011;12731;52.182;8.716;2024-01-06T14:23:36;12.38;;;8.35;;
24567;SDS011;12731;52.182;8.716;2024-01-06T14:26:03;13.45;;;9.63;;
24567;SDS011;12731;52.182;8.716;2024-01-06T14:28:29;12.80;;;9.10;;
24567;SDS011;12731;52.182;8.716;2024-01-06T14:30:58;14.00;;;9.20;;
24567;SDS011;12731;52.182;8.716;2024-01-06T14:33:25;12.25;;;9.13;;
24567;SDS011;12731;52.182;8.716;2024-01-06T14:35:53;13.02;;;8.77;;